Christina O — C6FN7 — position and weather

sailwx.info

Track history (hours):
 
Tides and Currents Weather Stations Pressure Air Temp Water Temp Dewpoint Dewpoint Depression Visibility Wind Speed Wind Dir Waves Ship Positions

Christina O

Operator: V Ships Leisure SAM

Last reported at 2017-Oct-15 22:23 UTC. Time now 2017-Oct-20 03:38 UTC.
Position N 43°56' W 068°50'.

Length 186 m; draft 6.1 m.

Type: Passenger vessel. MMSI: 308322000.

Date/timePositionNaut miles runAvg speedWind from/ knotsBaromVisibWave heightAir tempDewpointWater temp
2017-Oct-15 22:23N 43°56' W 068°50'411.6
2017-Oct-15 22:00N 43°57' W 068°56'713.7
2017-Oct-15 21:29N 44°04' W 069°01'4 7.7
2017-Oct-15 20:59N 44°06' W 069°05'0 0.1
2017-Oct-15 20:20N 44°06' W 069°05'0 0.1
2017-Oct-15 19:50N 44°06' W 069°05'0 0.1
2017-Oct-15 19:27N 44°06' W 069°05'0 0.1
2017-Oct-15 18:50N 44°06' W 069°05'0 0.1
2017-Oct-15 18:20N 44°06' W 069°05'0 0.0
2017-Oct-15 17:56N 44°06' W 069°05'0 0.1
2017-Oct-15 17:26N 44°06' W 069°05'0 0.0
2017-Oct-15 16:54N 44°06' W 069°05'0 0.0
2017-Oct-15 16:20N 44°06' W 069°05'0 0.0
2017-Oct-15 15:51N 44°06' W 069°05'0 0.0
2017-Oct-15 15:21N 44°06' W 069°05'0 0.1
2017-Oct-15 14:50N 44°06' W 069°05'0 0.0
2017-Oct-15 13:50N 44°06' W 069°05'0 0.0
2017-Oct-15 13:20N 44°06' W 069°05'0 0.1
2017-Oct-15 12:51N 44°06' W 069°05'0 0.0
2017-Oct-15 12:20N 44°06' W 069°05'0 0.0
2017-Oct-15 11:50N 44°06' W 069°05'0 0.1
2017-Oct-15 11:22N 44°06' W 069°05'2 3.8
2017-Oct-15 10:50N 44°06' W 069°02'410.1
2017-Oct-15 10:29N 44°03' W 069°01'812.4
2017-Oct-15 09:51N 43°56' W 068°54'610.2
2017-Oct-15 09:15N 43°56' W 068°46'310.9
2017-Oct-15 09:00N 43°55' W 068°42'611.2
2017-Oct-15 08:28N 43°50' W 068°42'813.1
2017-Oct-15 07:50N 43°42' W 068°47'712.7
2017-Oct-15 07:15N 43°37' W 068°55'413.0
2017-Oct-15 06:57N 43°35' W 068°58'5813.1
2017-Oct-15 02:30N 42°55' W 069°57'813.3
2017-Oct-15 01:55N 42°50' W 070°05'513.1
2017-Oct-15 01:30N 42°46' W 070°10'713.3
2017-Oct-15 01:00N 42°42' W 070°18'713.3
2017-Oct-15 00:30N 42°38' W 070°25'713.4
2017-Oct-15 00:00N 42°34' W 070°32'713.4
2017-Oct-14 23:30N 42°30' W 070°39'714.0
2017-Oct-14 23:00N 42°25' W 070°46'713.4
2017-Oct-14 22:30N 42°22' W 070°55'5 9.8
2017-Oct-14 22:00N 42°21' W 071°01'1 1.1
2017-Oct-14 21:30N 42°21' W 071°01'0 0.0
2017-Oct-14 21:00N 42°21' W 071°01'0 0.0
2017-Oct-14 20:30N 42°21' W 071°01'0 0.0
2017-Oct-14 20:00N 42°21' W 071°01'0 0.0
2017-Oct-14 19:30N 42°21' W 071°01'0 0.0
2017-Oct-14 19:00N 42°21' W 071°01'0 0.0
2017-Oct-14 18:30N 42°21' W 071°01'0 0.0
2017-Oct-14 18:00N 42°21' W 071°01'0 0.0
2017-Oct-14 17:30N 42°21' W 071°01'0 0.0
2017-Oct-14 17:00N 42°21' W 071°01'0 0.0
2017-Oct-14 16:30N 42°21' W 071°01'0 0.0
2017-Oct-14 16:00N 42°21' W 071°01'0 0.0
2017-Oct-14 15:30N 42°21' W 071°01'0 0.0
2017-Oct-14 15:00N 42°21' W 071°01'0 0.0
2017-Oct-14 14:30N 42°21' W 071°01'0 0.0
2017-Oct-14 14:00N 42°21' W 071°01'0 0.0
2017-Oct-14 13:30N 42°21' W 071°01'0 0.0
2017-Oct-14 13:00N 42°21' W 071°01'0 0.0
2017-Oct-14 12:30N 42°21' W 071°01'0 0.0
2017-Oct-14 12:00N 42°21' W 071°01'0 0.0
2017-Oct-14 11:30N 42°21' W 071°01'1 1.1
2017-Oct-14 11:01N 42°21' W 071°01'3 6.4
2017-Oct-14 10:31N 42°20' W 070°56'611.1
2017-Oct-14 10:01N 42°23' W 070°50'4 7.3
2017-Oct-14 09:31N 42°21' W 070°46'3 6.9
2017-Oct-14 09:00N 42°19' W 070°42'3 6.6
2017-Oct-14 08:30N 42°17' W 070°39'3 6.4
2017-Oct-14 08:00N 42°15' W 070°36'3 6.1
2017-Oct-14 07:30N 42°12' W 070°33'3 5.8
2017-Oct-14 07:01N 42°10' W 070°31'3 6.1
2017-Oct-14 06:30N 42°07' W 070°30'3 6.0
2017-Oct-14 06:00N 42°04' W 070°29'3 6.1
2017-Oct-14 05:29N 42°01' W 070°29'3 5.9
2017-Oct-14 04:59N 41°58' W 070°28'46 8.2
2017-Oct-13 23:20N 41°24' W 071°09'411.9
2017-Oct-13 22:58N 41°24' W 071°15'7 0.6
2017-Oct-13 12:10N 41°29' W 071°20'0 0.0
2017-Oct-13 11:58N 41°29' W 071°20'1 1.8
2017-Oct-13 11:29N 41°29' W 071°21'510.1
2017-Oct-13 11:00N 41°24' W 071°21'9912.1
2017-Oct-13 02:50N 40°23' W 073°04'513.7
2017-Oct-13 02:30N 40°23' W 073°11'713.7
2017-Oct-13 02:00N 40°24' W 073°19'713.6
2017-Oct-13 01:30N 40°25' W 073°28'713.6
2017-Oct-13 00:59N 40°25' W 073°37'713.6
2017-Oct-13 00:30N 40°26' W 073°46'510.4
2017-Oct-13 00:00N 40°28' W 073°52'816.3
2017-Oct-12 23:30N 40°32' W 074°01'815.5
2017-Oct-12 23:00N 40°40' W 074°03'611.6
2017-Oct-12 22:30N 40°46' W 074°01'1 1.3
2017-Oct-12 22:00N 40°46' W 073°60'0 0.0
2017-Oct-12 21:30N 40°46' W 073°60'0 0.0
2017-Oct-12 20:59N 40°46' W 073°60'0 0.0
2017-Oct-12 20:30N 40°46' W 073°60'0 0.0
2017-Oct-12 20:00N 40°46' W 073°60'0 0.0
2017-Oct-12 19:30N 40°46' W 073°60'0 0.0
2017-Oct-12 19:00N 40°46' W 073°60'0 0.0
2017-Oct-12 18:30N 40°46' W 073°60'0 0.0
2017-Oct-12 18:00N 40°46' W 073°60'0 0.0
2017-Oct-12 17:30N 40°46' W 073°60'0 0.0
2017-Oct-12 17:00N 40°46' W 073°60'0 0.0
2017-Oct-12 16:30N 40°46' W 073°60'0 0.0
2017-Oct-12 16:00N 40°46' W 073°60'0 0.0
2017-Oct-12 15:30N 40°46' W 073°60'0 0.0
2017-Oct-12 15:00N 40°46' W 073°60'0 0.0
2017-Oct-12 14:30N 40°46' W 073°60'0 0.0
2017-Oct-12 14:00N 40°46' W 073°60'0 0.0
2017-Oct-12 13:30N 40°46' W 073°60'0 0.0
2017-Oct-12 13:00N 40°46' W 073°60'0 0.0
2017-Oct-12 12:30N 40°46' W 073°60'0 0.0
2017-Oct-12 12:00N 40°46' W 073°60'0 0.1
2017-Oct-12 11:30N 40°46' W 074°00'1 2.5
2017-Oct-12 11:00N 40°45' W 074°01'611.2
2017-Oct-12 10:30N 40°39' W 074°03'510.1
2017-Oct-12 10:00N 40°35' W 074°02'612.9
2017-Oct-12 09:30N 40°30' W 073°56'712.9
2017-Oct-12 09:00N 40°27' W 073°49'610.8
2017-Oct-12 08:29N 40°27' W 073°41'12111.9
2017-Oct-11 22:21N 41°27' W 071°23'57 2.5
2017-Oct-11 00:00N 42°11' W 070°34'612.0
2017-Oct-10 23:30N 42°16' W 070°39'612.2
2017-Oct-10 23:01N 42°20' W 070°45'611.3
2017-Oct-10 22:31N 42°23' W 070°52'612.2
2017-Oct-10 22:00N 42°20' W 070°59'2 4.0
2017-Oct-10 21:30N 42°21' W 071°01'0 0.0
2017-Oct-10 21:00N 42°21' W 071°01'0 0.0
2017-Oct-10 20:30N 42°21' W 071°01'0 0.0
2017-Oct-10 20:00N 42°21' W 071°01'0 0.0
2017-Oct-10 19:30N 42°21' W 071°01'0 0.0
2017-Oct-10 19:00N 42°21' W 071°01'0 0.0
2017-Oct-10 18:30N 42°21' W 071°01'0 0.0
2017-Oct-10 18:00N 42°21' W 071°01'0 0.0
2017-Oct-10 17:30N 42°21' W 071°01'0 0.0
2017-Oct-10 17:00N 42°21' W 071°01'0 0.0
2017-Oct-10 16:30N 42°21' W 071°01'0 0.0
2017-Oct-10 16:00N 42°21' W 071°01'0 0.0
2017-Oct-10 15:30N 42°21' W 071°01'0 0.0
2017-Oct-10 15:00N 42°21' W 071°01'0 0.0
2017-Oct-10 14:00N 42°21' W 071°01'0 0.0
2017-Oct-10 13:30N 42°21' W 071°01'0 0.0
2017-Oct-10 13:00N 42°21' W 071°01'0 0.0
2017-Oct-10 12:27N 42°21' W 071°01'0 0.0
2017-Oct-10 12:00N 42°21' W 071°01'0 0.0
2017-Oct-10 11:31N 42°21' W 071°01'1 1.1
2017-Oct-10 11:01N 42°21' W 071°01'4 7.2
2017-Oct-10 10:31N 42°21' W 070°56'510.3
2017-Oct-10 10:00N 42°24' W 070°50'4 8.8
2017-Oct-10 09:31N 42°27' W 070°45'5 9.5
2017-Oct-10 09:00N 42°30' W 070°41'4 9.0
2017-Oct-10 08:30N 42°32' W 070°35'4 8.7
2017-Oct-10 08:01N 42°35' W 070°31'4 8.5
2017-Oct-10 07:30N 42°38' W 070°27'4 7.8
2017-Oct-10 07:01N 42°41' W 070°24'4 7.3
2017-Oct-10 06:30N 42°44' W 070°21'4 8.3
2017-Oct-10 06:00N 42°47' W 070°17'4 8.2
2017-Oct-10 05:30N 42°51' W 070°14'4 8.1
2017-Oct-10 05:00N 42°54' W 070°10'46 2.8
2017-Oct-09 12:44N 43°39' W 070°15'3 6.2
2017-Oct-09 12:13N 43°37' W 070°12'315.0
2017-Oct-09 12:00N 43°35' W 070°09'714.1
2017-Oct-09 11:30N 43°32' W 070°00'816.3
2017-Oct-09 11:00N 43°29' W 069°49'917.7
2017-Oct-09 10:31N 43°27' W 069°38'1016.9
2017-Oct-09 09:54N 43°27' W 069°24'718.0
2017-Oct-09 09:30N 43°30' W 069°15'918.0
2017-Oct-09 09:00N 43°34' W 069°03'917.9
2017-Oct-09 08:31N 43°38' W 068°52'918.1
2017-Oct-09 08:00N 43°41' W 068°41'918.2
2017-Oct-09 07:31N 43°45' W 068°30'1118.2
2017-Oct-09 06:55N 43°50' W 068°16'  
Track history (hours):
 
Tides and Currents Weather Stations Pressure Air Temp Water Temp Dewpoint Dewpoint Depression Visibility Wind Speed Wind Dir Waves Ship Positions

Christina O

Operator: V Ships Leisure SAM

Last reported at 2017-Oct-15 22:23 UTC. Time now 2017-Oct-20 03:38 UTC.
Position N 43°56' W 068°50'.

Length 186 m; draft 6.1 m.

Type: Passenger vessel. MMSI: 308322000.

Date/timePositionNaut miles runAvg speedWind from/ knotsBaromVisibWave heightAir tempDewpointWater temp
2017-Oct-15 22:23N 43°56' W 068°50'411.6
2017-Oct-15 22:00N 43°57' W 068°56'713.7
2017-Oct-15 21:29N 44°04' W 069°01'4 7.7
2017-Oct-15 20:59N 44°06' W 069°05'0 0.1
2017-Oct-15 20:20N 44°06' W 069°05'0 0.1
2017-Oct-15 19:50N 44°06' W 069°05'0 0.1
2017-Oct-15 19:27N 44°06' W 069°05'0 0.1
2017-Oct-15 18:50N 44°06' W 069°05'0 0.1
2017-Oct-15 18:20N 44°06' W 069°05'0 0.0
2017-Oct-15 17:56N 44°06' W 069°05'0 0.1
2017-Oct-15 17:26N 44°06' W 069°05'0 0.0
2017-Oct-15 16:54N 44°06' W 069°05'0 0.0
2017-Oct-15 16:20N 44°06' W 069°05'0 0.0
2017-Oct-15 15:51N 44°06' W 069°05'0 0.0
2017-Oct-15 15:21N 44°06' W 069°05'0 0.1
2017-Oct-15 14:50N 44°06' W 069°05'0 0.0
2017-Oct-15 13:50N 44°06' W 069°05'0 0.0
2017-Oct-15 13:20N 44°06' W 069°05'0 0.1
2017-Oct-15 12:51N 44°06' W 069°05'0 0.0
2017-Oct-15 12:20N 44°06' W 069°05'0 0.0
2017-Oct-15 11:50N 44°06' W 069°05'0 0.1
2017-Oct-15 11:22N 44°06' W 069°05'2 3.8
2017-Oct-15 10:50N 44°06' W 069°02'410.1
2017-Oct-15 10:29N 44°03' W 069°01'812.4
2017-Oct-15 09:51N 43°56' W 068°54'610.2
2017-Oct-15 09:15N 43°56' W 068°46'310.9
2017-Oct-15 09:00N 43°55' W 068°42'611.2
2017-Oct-15 08:28N 43°50' W 068°42'813.1
2017-Oct-15 07:50N 43°42' W 068°47'712.7
2017-Oct-15 07:15N 43°37' W 068°55'413.0
2017-Oct-15 06:57N 43°35' W 068°58'5813.1
2017-Oct-15 02:30N 42°55' W 069°57'813.3
2017-Oct-15 01:55N 42°50' W 070°05'513.1
2017-Oct-15 01:30N 42°46' W 070°10'713.3
2017-Oct-15 01:00N 42°42' W 070°18'713.3
2017-Oct-15 00:30N 42°38' W 070°25'713.4
2017-Oct-15 00:00N 42°34' W 070°32'713.4
2017-Oct-14 23:30N 42°30' W 070°39'714.0
2017-Oct-14 23:00N 42°25' W 070°46'713.4
2017-Oct-14 22:30N 42°22' W 070°55'5 9.8
2017-Oct-14 22:00N 42°21' W 071°01'1 1.1
2017-Oct-14 21:30N 42°21' W 071°01'0 0.0
2017-Oct-14 21:00N 42°21' W 071°01'0 0.0
2017-Oct-14 20:30N 42°21' W 071°01'0 0.0
2017-Oct-14 20:00N 42°21' W 071°01'0 0.0
2017-Oct-14 19:30N 42°21' W 071°01'0 0.0
2017-Oct-14 19:00N 42°21' W 071°01'0 0.0
2017-Oct-14 18:30N 42°21' W 071°01'0 0.0
2017-Oct-14 18:00N 42°21' W 071°01'0 0.0
2017-Oct-14 17:30N 42°21' W 071°01'0 0.0
2017-Oct-14 17:00N 42°21' W 071°01'0 0.0
2017-Oct-14 16:30N 42°21' W 071°01'0 0.0
2017-Oct-14 16:00N 42°21' W 071°01'0 0.0
2017-Oct-14 15:30N 42°21' W 071°01'0 0.0
2017-Oct-14 15:00N 42°21' W 071°01'0 0.0
2017-Oct-14 14:30N 42°21' W 071°01'0 0.0
2017-Oct-14 14:00N 42°21' W 071°01'0 0.0
2017-Oct-14 13:30N 42°21' W 071°01'0 0.0
2017-Oct-14 13:00N 42°21' W 071°01'0 0.0
2017-Oct-14 12:30N 42°21' W 071°01'0 0.0
2017-Oct-14 12:00N 42°21' W 071°01'0 0.0
2017-Oct-14 11:30N 42°21' W 071°01'1 1.1
2017-Oct-14 11:01N 42°21' W 071°01'3 6.4
2017-Oct-14 10:31N 42°20' W 070°56'611.1
2017-Oct-14 10:01N 42°23' W 070°50'4 7.3
2017-Oct-14 09:31N 42°21' W 070°46'3 6.9
2017-Oct-14 09:00N 42°19' W 070°42'3 6.6
2017-Oct-14 08:30N 42°17' W 070°39'3 6.4
2017-Oct-14 08:00N 42°15' W 070°36'3 6.1
2017-Oct-14 07:30N 42°12' W 070°33'3 5.8
2017-Oct-14 07:01N 42°10' W 070°31'3 6.1
2017-Oct-14 06:30N 42°07' W 070°30'3 6.0
2017-Oct-14 06:00N 42°04' W 070°29'3 6.1
2017-Oct-14 05:29N 42°01' W 070°29'3 5.9
2017-Oct-14 04:59N 41°58' W 070°28'46 8.2
2017-Oct-13 23:20N 41°24' W 071°09'411.9
2017-Oct-13 22:58N 41°24' W 071°15'7 0.6
2017-Oct-13 12:10N 41°29' W 071°20'0 0.0
2017-Oct-13 11:58N 41°29' W 071°20'1 1.8
2017-Oct-13 11:29N 41°29' W 071°21'510.1
2017-Oct-13 11:00N 41°24' W 071°21'9912.1
2017-Oct-13 02:50N 40°23' W 073°04'513.7
2017-Oct-13 02:30N 40°23' W 073°11'713.7
2017-Oct-13 02:00N 40°24' W 073°19'713.6
2017-Oct-13 01:30N 40°25' W 073°28'713.6
2017-Oct-13 00:59N 40°25' W 073°37'713.6
2017-Oct-13 00:30N 40°26' W 073°46'510.4
2017-Oct-13 00:00N 40°28' W 073°52'816.3
2017-Oct-12 23:30N 40°32' W 074°01'815.5
2017-Oct-12 23:00N 40°40' W 074°03'611.6
2017-Oct-12 22:30N 40°46' W 074°01'1 1.3
2017-Oct-12 22:00N 40°46' W 073°60'0 0.0
2017-Oct-12 21:30N 40°46' W 073°60'0 0.0
2017-Oct-12 20:59N 40°46' W 073°60'0 0.0
2017-Oct-12 20:30N 40°46' W 073°60'0 0.0
2017-Oct-12 20:00N 40°46' W 073°60'0 0.0
2017-Oct-12 19:30N 40°46' W 073°60'0 0.0
2017-Oct-12 19:00N 40°46' W 073°60'0 0.0
2017-Oct-12 18:30N 40°46' W 073°60'0 0.0
2017-Oct-12 18:00N 40°46' W 073°60'0 0.0
2017-Oct-12 17:30N 40°46' W 073°60'0 0.0
2017-Oct-12 17:00N 40°46' W 073°60'0 0.0
2017-Oct-12 16:30N 40°46' W 073°60'0 0.0
2017-Oct-12 16:00N 40°46' W 073°60'0 0.0
2017-Oct-12 15:30N 40°46' W 073°60'0 0.0
2017-Oct-12 15:00N 40°46' W 073°60'0 0.0
2017-Oct-12 14:30N 40°46' W 073°60'0 0.0
2017-Oct-12 14:00N 40°46' W 073°60'0 0.0
2017-Oct-12 13:30N 40°46' W 073°60'0 0.0
2017-Oct-12 13:00N 40°46' W 073°60'0 0.0
2017-Oct-12 12:30N 40°46' W 073°60'0 0.0
2017-Oct-12 12:00N 40°46' W 073°60'0 0.1
2017-Oct-12 11:30N 40°46' W 074°00'1 2.5
2017-Oct-12 11:00N 40°45' W 074°01'611.2
2017-Oct-12 10:30N 40°39' W 074°03'510.1
2017-Oct-12 10:00N 40°35' W 074°02'612.9
2017-Oct-12 09:30N 40°30' W 073°56'712.9
2017-Oct-12 09:00N 40°27' W 073°49'610.8
2017-Oct-12 08:29N 40°27' W 073°41'12111.9
2017-Oct-11 22:21N 41°27' W 071°23'57 2.5
2017-Oct-11 00:00N 42°11' W 070°34'612.0
2017-Oct-10 23:30N 42°16' W 070°39'612.2
2017-Oct-10 23:01N 42°20' W 070°45'611.3
2017-Oct-10 22:31N 42°23' W 070°52'612.2
2017-Oct-10 22:00N 42°20' W 070°59'2 4.0
2017-Oct-10 21:30N 42°21' W 071°01'0 0.0
2017-Oct-10 21:00N 42°21' W 071°01'0 0.0
2017-Oct-10 20:30N 42°21' W 071°01'0 0.0
2017-Oct-10 20:00N 42°21' W 071°01'0 0.0
2017-Oct-10 19:30N 42°21' W 071°01'0 0.0
2017-Oct-10 19:00N 42°21' W 071°01'0 0.0
2017-Oct-10 18:30N 42°21' W 071°01'0 0.0
2017-Oct-10 18:00N 42°21' W 071°01'0 0.0
2017-Oct-10 17:30N 42°21' W 071°01'0 0.0
2017-Oct-10 17:00N 42°21' W 071°01'0 0.0
2017-Oct-10 16:30N 42°21' W 071°01'0 0.0
2017-Oct-10 16:00N 42°21' W 071°01'0 0.0
2017-Oct-10 15:30N 42°21' W 071°01'0 0.0
2017-Oct-10 15:00N 42°21' W 071°01'0 0.0
2017-Oct-10 14:00N 42°21' W 071°01'0 0.0
2017-Oct-10 13:30N 42°21' W 071°01'0 0.0
2017-Oct-10 13:00N 42°21' W 071°01'0 0.0
2017-Oct-10 12:27N 42°21' W 071°01'0 0.0
2017-Oct-10 12:00N 42°21' W 071°01'0 0.0
2017-Oct-10 11:31N 42°21' W 071°01'1 1.1
2017-Oct-10 11:01N 42°21' W 071°01'4 7.2
2017-Oct-10 10:31N 42°21' W 070°56'510.3
2017-Oct-10 10:00N 42°24' W 070°50'4 8.8
2017-Oct-10 09:31N 42°27' W 070°45'5 9.5
2017-Oct-10 09:00N 42°30' W 070°41'4 9.0
2017-Oct-10 08:30N 42°32' W 070°35'4 8.7
2017-Oct-10 08:01N 42°35' W 070°31'4 8.5
2017-Oct-10 07:30N 42°38' W 070°27'4 7.8
2017-Oct-10 07:01N 42°41' W 070°24'4 7.3
2017-Oct-10 06:30N 42°44' W 070°21'4 8.3
2017-Oct-10 06:00N 42°47' W 070°17'4 8.2
2017-Oct-10 05:30N 42°51' W 070°14'4 8.1
2017-Oct-10 05:00N 42°54' W 070°10'46 2.8
2017-Oct-09 12:44N 43°39' W 070°15'3 6.2
2017-Oct-09 12:13N 43°37' W 070°12'315.0
2017-Oct-09 12:00N 43°35' W 070°09'714.1
2017-Oct-09 11:30N 43°32' W 070°00'816.3
2017-Oct-09 11:00N 43°29' W 069°49'917.7
2017-Oct-09 10:31N 43°27' W 069°38'1016.9
2017-Oct-09 09:54N 43°27' W 069°24'718.0
2017-Oct-09 09:30N 43°30' W 069°15'918.0
2017-Oct-09 09:00N 43°34' W 069°03'917.9
2017-Oct-09 08:31N 43°38' W 068°52'918.1
2017-Oct-09 08:00N 43°41' W 068°41'918.2
2017-Oct-09 07:31N 43°45' W 068°30'1118.2
2017-Oct-09 06:55N 43°50' W 068°16'  

Dump ship's entire track history